Time;durP1;ratioP1;P1;durP2;ratioP2;P2;SDS_P1;SDS_P2;PMS_P1;PMS_P2;Temp;Humidity;BMP_temperature;BMP_pressure;BME280_temperature;BME280_humidity;BME280_pressure;Samples;Min_cycle;Max_cycle;Signal;HPM_P1;HPM_P2
2021/12/08 00:00:20;;;;;;;2.28;2.03;;;2.70;87.20;;;;;;5079063;28;20295;-82
2021/12/08 00:02:47;;;;;;;3.88;2.05;;;;;;;;;;5081587;28;20282;-82
2021/12/08 00:05:16;;;;;;;3.40;1.98;;;2.70;87.30;;;;;;5078073;28;20298;-82
2021/12/08 00:07:43;;;;;;;2.03;1.85;;;;;;;;;;5079981;28;20228;-81
2021/12/08 00:10:17;;;;;;;2.20;2.00;;;2.80;87.20;;;;;;5075544;28;20240;-82
2021/12/08 00:13:03;;;;;;;3.58;2.78;;;2.80;87.40;;;;;;5078093;28;20633;-82
2021/12/08 00:15:30;;;;;;;2.55;1.95;;;;;;;;;;5082462;28;20686;-79
2021/12/08 00:17:57;;;;;;;2.60;2.22;;;;;;;;;;5072744;28;20234;-80
2021/12/08 00:20:27;;;;;;;4.35;2.22;;;;;;;;;;5080679;28;20261;-80
2021/12/08 00:22:54;;;;;;;6.82;2.25;;;;;;;;;;5079318;28;20607;-80
2021/12/08 00:25:21;;;;;;;3.55;2.30;;;2.60;91.70;;;;;;5080638;28;20616;-80
2021/12/08 00:27:50;;;;;;;4.72;2.75;;;;;;;;;;5081897;28;20253;-79
2021/12/08 00:30:17;;;;;;;2.58;2.38;;;;;;;;;;5072433;28;20690;-80
2021/12/08 00:32:44;;;;;;;4.05;2.70;;;;;;;;;;5080679;28;20247;-80
2021/12/08 00:35:11;;;;;;;2.65;2.33;;;2.40;93.20;;;;;;5081556;28;20293;-80
2021/12/08 00:37:39;;;;;;;3.35;2.03;;;2.80;90.60;;;;;;5083678;28;20659;-80
2021/12/08 00:40:08;;;;;;;2.58;2.38;;;2.80;90.00;;;;;;5078523;28;20294;-81
2021/12/08 00:42:36;;;;;;;3.83;2.50;;;;;;;;;;5084314;28;20209;-81
2021/12/08 00:45:06;;;;;;;4.25;2.65;;;2.70;91.40;;;;;;5082594;28;20564;-80
2021/12/08 00:47:33;;;;;;;2.20;2.00;;;2.60;93.30;;;;;;5078748;28;20683;-80
2021/12/08 00:50:01;;;;;;;2.78;2.10;;;;;;;;;;5086067;28;20643;-80
2021/12/08 00:52:29;;;;;;;3.53;2.50;;;3.10;98.50;;;;;;5080568;28;20202;-80
2021/12/08 00:54:56;;;;;;;2.72;1.85;;;2.60;93.00;;;;;;5078131;28;20205;-80
2021/12/08 00:57:23;;;;;;;2.42;2.10;;;2.60;95.30;;;;;;5085758;28;20231;-80
2021/12/08 00:59:51;;;;;;;8.93;2.30;;;2.80;94.80;;;;;;5084305;28;20287;-81
2021/12/08 01:02:19;;;;;;;2.38;1.92;;;2.60;94.10;;;;;;5079300;28;20291;-82
2021/12/08 01:04:46;;;;;;;2.63;2.40;;;;;;;;;;5086081;28;20223;-81
2021/12/08 01:07:13;;;;;;;2.28;2.08;;;2.40;99.90;;;;;;5081208;28;20297;-82
2021/12/08 01:09:40;;;;;;;3.55;2.30;;;2.50;99.90;;;;;;5080977;28;20230;-82
2021/12/08 01:12:08;;;;;;;1.70;1.60;;;2.30;99.90;;;;;;5080368;28;20224;-82
2021/12/08 01:14:36;;;;;;;3.13;1.70;;;2.20;98.40;;;;;;5081873;28;20228;-82
2021/12/08 01:17:05;;;;;;;2.35;2.15;;;2.30;98.30;;;;;;5077674;28;20965;-83
2021/12/08 01:19:34;;;;;;;3.15;2.10;;;2.30;98.20;;;;;;5080758;28;20209;-83
2021/12/08 01:22:01;;;;;;;2.97;2.15;;;;;;;;;;5082047;28;20207;-84
2021/12/08 01:24:28;;;;;;;5.30;2.60;;;2.20;99.90;;;;;;5076946;28;20231;-84
2021/12/08 01:26:55;;;;;;;3.10;2.05;;;;;;;;;;5082124;28;20306;-84
2021/12/08 01:29:22;;;;;;;2.20;2.03;;;;;;;;;;5081684;28;20232;-84
2021/12/08 01:31:50;;;;;;;3.65;2.20;;;;;;;;;;5081949;28;20295;-83
2021/12/08 01:34:17;;;;;;;2.30;1.73;;;;;;;;;;5081823;28;20675;-83
2021/12/08 01:36:46;;;;;;;5.75;2.70;;;;;;;;;;5077965;28;20572;-83
2021/12/08 01:39:13;;;;;;;2.55;1.80;;;;;;;;;;5080339;28;20216;-83
2021/12/08 01:41:40;;;;;;;2.00;1.90;;;;;;;;;;5081903;28;20258;-82
2021/12/08 01:46:53;;;;;;;1.88;1.45;;;;;;;;;;5076935;28;20293;-82
2021/12/08 01:49:20;;;;;;;1.83;1.70;;;2.70;99.90;;;;;;5081451;28;20200;-82
2021/12/08 01:51:49;;;;;;;3.05;1.90;;;;;;;;;;5082123;28;20235;-82
2021/12/08 01:54:18;;;;;;;2.38;2.20;;;;;;;;;;5081348;28;20211;-82
2021/12/08 01:56:45;;;;;;;2.03;1.50;;;;;;;;;;5083393;28;20291;-82
2021/12/08 01:59:13;;;;;;;2.63;2.42;;;;;;;;;;5078950;28;20602;-82
2021/12/08 02:01:42;;;;;;;3.13;2.30;;;2.30;99.90;;;;;;5080554;28;20692;-82
2021/12/08 02:04:09;;;;;;;3.15;2.05;;;2.30;99.90;;;;;;5077128;28;20228;-82
2021/12/08 02:06:42;;;;;;;2.80;2.10;;;2.00;99.90;;;;;;5076243;28;20218;-82
2021/12/08 02:09:15;;;;;;;2.55;1.88;;;2.20;99.90;;;;;;5080357;28;20212;-82
2021/12/08 02:11:46;;;;;;;2.97;1.92;;;2.30;99.90;;;;;;5080661;28;20284;-82
2021/12/08 02:14:14;;;;;;;2.13;2.03;;;2.30;99.90;;;;;;5077632;28;20205;-82
2021/12/08 02:16:42;;;;;;;3.78;2.05;;;;;;;;;;5078044;28;20201;-82
2021/12/08 02:19:09;;;;;;;2.45;2.25;;;;;;;;;;5073886;28;20226;-82
2021/12/08 02:21:41;;;;;;;3.00;2.55;;;2.30;99.90;;;;;;5079263;28;20203;-82
2021/12/08 02:24:14;;;;;;;1.65;1.40;;;2.30;99.90;;;;;;5077617;28;20245;-81
2021/12/08 02:26:44;;;;;;;3.85;2.30;;;2.10;99.90;;;;;;5078391;28;20273;-82
2021/12/08 02:29:33;;;;;;;3.50;3.17;;;2.30;99.90;;;;;;5076189;28;20212;-82
2021/12/08 02:32:07;;;;;;;3.10;2.75;;;;;;;;;;5080157;28;20309;-82
2021/12/08 02:48:24;;;;;;;3.45;2.92;;;;;;;;;;5081901;28;20286;-83
2021/12/08 02:50:51;;;;;;;3.47;3.00;;;;;;;;;;5073856;28;20227;-82
2021/12/08 02:53:19;;;;;;;2.85;2.45;;;;;;;;;;5076369;28;20261;-82
2021/12/08 02:55:47;;;;;;;10.40;2.47;;;;;;;;;;5081935;28;20260;-82
2021/12/08 02:58:15;;;;;;;4.75;2.75;;;2.30;99.90;;;;;;5076390;28;20216;-83
2021/12/08 03:00:46;;;;;;;2.88;2.55;;;2.40;99.90;;;;;;5084577;28;20653;-82
2021/12/08 03:03:13;;;;;;;3.35;2.97;;;;;;;;;;5080771;28;20265;-82
2021/12/08 03:05:41;;;;;;;2.90;2.70;;;2.50;99.90;;;;;;5076756;28;20270;-82
2021/12/08 03:08:09;;;;;;;3.88;3.42;;;3.20;99.90;;;;;;5072596;28;20209;-82
2021/12/08 03:10:40;;;;;;;3.05;2.75;;;2.40;99.90;;;;;;5080092;28;20319;-82
2021/12/08 03:13:07;;;;;;;2.97;2.53;;;2.40;99.90;;;;;;5076278;28;20287;-82
2021/12/08 03:15:35;;;;;;;2.58;2.38;;;;;;;;;;5071546;28;20242;-82
2021/12/08 03:18:02;;;;;;;9.32;3.70;;;;;;;;;;5077349;28;20292;-82
2021/12/08 03:20:38;;;;;;;2.60;2.40;;;2.50;99.90;;;;;;5081661;28;20208;-82
2021/12/08 03:23:06;;;;;;;3.00;2.80;;;;;;;;;;5075953;28;20250;-82
2021/12/08 03:25:38;;;;;;;3.88;2.72;;;;;;;;;;5079659;28;20204;-82
2021/12/08 03:28:14;;;;;;;2.33;2.13;;;2.50;99.90;;;;;;5079475;28;20573;-82
2021/12/08 03:30:54;;;;;;;2.60;2.40;;;;;;;;;;5082833;28;20219;-82
2021/12/08 03:33:22;;;;;;;3.80;3.03;;;2.50;99.90;;;;;;5076832;28;20208;-82
2021/12/08 03:35:49;;;;;;;3.33;3.03;;;2.60;99.90;;;;;;5083750;28;20989;-82
2021/12/08 03:38:17;;;;;;;3.20;2.70;;;;;;;;;;5078820;28;20211;-82
2021/12/08 03:40:44;;;;;;;4.13;2.97;;;;;;;;;;5081385;28;20300;-82
2021/12/08 03:43:13;;;;;;;3.40;3.10;;;;;;;;;;5079448;28;20273;-82
2021/12/08 03:45:45;;;;;;;3.00;2.63;;;2.50;99.90;;;;;;5080923;28;20209;-82
2021/12/08 03:48:16;;;;;;;4.60;2.55;;;2.50;99.90;;;;;;5077929;28;20303;-82
2021/12/08 03:50:44;;;;;;;2.80;2.60;;;2.50;99.90;;;;;;5079127;28;20255;-82
2021/12/08 03:53:15;;;;;;;3.00;2.70;;;2.50;99.90;;;;;;5080363;28;20276;-82
2021/12/08 03:55:43;;;;;;;4.30;3.00;;;2.50;99.90;;;;;;5079427;28;20205;-82
2021/12/08 03:58:12;;;;;;;4.68;3.97;;;;;;;;;;5075129;28;20248;-82
2021/12/08 04:00:41;;;;;;;3.65;3.33;;;2.60;99.90;;;;;;5084347;28;20311;-81
2021/12/08 04:03:08;;;;;;;3.42;3.10;;;2.60;99.90;;;;;;5086883;28;20249;-82
2021/12/08 04:05:44;;;;;;;4.03;3.60;;;2.60;99.90;;;;;;5081711;28;20260;-82
2021/12/08 04:08:17;;;;;;;3.63;2.70;;;;;;;;;;5081998;28;20686;-82
2021/12/08 04:10:45;;;;;;;2.95;2.72;;;;;;;;;;5079789;28;20334;-82
2021/12/08 04:13:14;;;;;;;3.88;3.17;;;2.80;99.90;;;;;;5081538;28;20256;-82
2021/12/08 04:15:41;;;;;;;4.15;3.65;;;2.70;99.90;;;;;;5080141;28;20277;-82
2021/12/08 04:18:09;;;;;;;4.70;3.40;;;;;;;;;;5079183;28;20311;-82
2021/12/08 04:20:39;;;;;;;6.45;3.13;;;2.70;99.90;;;;;;5084936;28;20678;-82
2021/12/08 04:23:08;;;;;;;4.18;3.33;;;2.70;99.90;;;;;;5080347;28;20204;-82
2021/12/08 04:25:38;;;;;;;3.70;3.40;;;2.80;99.90;;;;;;5078749;28;20773;-81
2021/12/08 04:28:10;;;;;;;5.15;3.40;;;2.60;99.90;;;;;;5084269;28;20291;-82
2021/12/08 04:30:42;;;;;;;4.43;3.78;;;2.70;99.90;;;;;;5085634;28;20256;-82
2021/12/08 04:33:10;;;;;;;4.57;3.70;;;2.80;99.90;;;;;;5086039;28;20868;-82
2021/12/08 04:35:39;;;;;;;7.25;4.47;;;2.70;99.90;;;;;;5084252;28;20231;-81
2021/12/08 04:38:11;;;;;;;3.50;3.20;;;2.80;99.90;;;;;;5079810;28;20288;-81
2021/12/08 04:40:51;;;;;;;8.68;4.57;;;3.00;99.90;;;;;;5082838;28;20249;-81
2021/12/08 04:43:25;;;;;;;6.88;4.40;;;2.90;99.90;;;;;;5078703;28;20560;-82
2021/12/08 04:46:03;;;;;;;4.70;4.20;;;2.90;99.90;;;;;;5084455;28;20204;-82
2021/12/08 04:48:45;;;;;;;5.40;3.97;;;2.10;99.90;;;;;;5079923;28;20267;-81
2021/12/08 04:51:35;;;;;;;3.75;3.45;;;2.90;99.90;;;;;;5081810;28;20282;-81
2021/12/08 05:02:31;;;;;;;4.97;4.55;;;2.90;99.90;;;;;;5083886;28;20243;-81
2021/12/08 05:05:12;;;;;;;8.57;5.00;;;;;;;;;;5073984;28;20223;-81
2021/12/08 05:07:50;;;;;;;4.40;3.92;;;;;;;;;;5078952;28;20216;-82
2021/12/08 05:10:21;;;;;;;5.80;4.15;;;3.00;99.90;;;;;;5082534;28;20213;-82
2021/12/08 05:12:51;;;;;;;7.22;5.32;;;2.90;99.90;;;;;;5081619;28;20741;-82
2021/12/08 05:15:23;;;;;;;4.70;4.25;;;3.00;99.90;;;;;;5082505;28;20209;-82
2021/12/08 05:17:57;;;;;;;5.15;3.60;;;3.00;99.90;;;;;;5081497;28;20244;-82
2021/12/08 05:20:32;;;;;;;6.35;4.60;;;3.00;99.90;;;;;;5081452;28;20566;-82
2021/12/08 05:23:04;;;;;;;5.97;5.40;;;3.00;99.90;;;;;;5082440;28;20201;-82
2021/12/08 05:25:36;;;;;;;5.13;4.63;;;3.00;99.90;;;;;;5081509;28;20259;-82
2021/12/08 05:28:08;;;;;;;7.35;4.53;;;2.90;99.90;;;;;;5081070;28;20674;-82
2021/12/08 05:30:39;;;;;;;5.00;4.45;;;3.00;99.90;;;;;;5082953;28;20239;-82
2021/12/08 05:33:08;;;;;;;9.60;6.13;;;3.10;99.90;;;;;;5078157;28;20203;-82
2021/12/08 05:35:38;;;;;;;6.25;5.13;;;3.10;99.90;;;;;;5077197;28;20296;-82
2021/12/08 05:38:05;;;;;;;13.13;5.22;;;;;;;;;;5074197;28;20235;-82
2021/12/08 05:40:36;;;;;;;4.47;4.05;;;3.20;99.90;;;;;;5077782;28;20217;-82
2021/12/08 05:43:04;;;;;;;7.18;5.50;;;3.00;99.90;;;;;;5078927;28;20300;-82
2021/12/08 05:45:31;;;;;;;8.48;5.53;;;;;;;;;;5080468;28;20236;-82
2021/12/08 05:47:59;;;;;;;6.82;5.60;;;3.20;99.90;;;;;;5077981;28;20819;-82
2021/12/08 05:50:32;;;;;;;7.63;5.65;;;3.20;99.90;;;;;;5083950;28;20280;-82
2021/12/08 05:53:00;;;;;;;6.50;5.90;;;;;;;;;;5086533;28;20198;-82
2021/12/08 05:55:27;;;;;;;9.27;5.47;;;;;;;;;;5080114;28;20238;-82
2021/12/08 05:57:54;;;;;;;8.00;5.63;;;;;;;;;;5075519;28;20675;-82
2021/12/08 06:00:30;;;;;;;7.35;6.32;;;3.30;99.90;;;;;;5077974;28;20197;-82
2021/12/08 06:02:58;;;;;;;10.10;6.38;;;;;;;;;;5082506;28;20229;-82
2021/12/08 06:05:29;;;;;;;7.72;6.30;;;3.20;99.90;;;;;;5082840;28;20207;-82
2021/12/08 06:07:56;;;;;;;8.75;6.80;;;3.20;99.90;;;;;;5081704;28;20251;-82
2021/12/08 06:10:27;;;;;;;7.63;5.53;;;3.30;99.90;;;;;;5076478;28;20204;-82
2021/12/08 06:12:55;;;;;;;8.13;6.53;;;;;;;;;;5081738;28;20401;-82
2021/12/08 06:15:22;;;;;;;9.88;6.90;;;;;;;;;;5077524;28;20841;-82
2021/12/08 06:17:50;;;;;;;13.93;6.50;;;3.30;99.90;;;;;;5076359;28;20289;-82
2021/12/08 06:20:18;;;;;;;7.75;6.00;;;3.30;99.90;;;;;;5083267;28;20232;-82
2021/12/08 06:22:48;;;;;;;7.15;6.03;;;3.20;99.90;;;;;;5081775;28;20205;-82
2021/12/08 06:25:18;;;;;;;8.15;5.95;;;3.40;99.90;;;;;;5076888;28;20246;-82
2021/12/08 06:27:45;;;;;;;12.25;6.75;;;;;;;;;;5080583;28;20671;-82
2021/12/08 06:30:17;;;;;;;6.82;5.45;;;3.30;99.90;;;;;;5076855;28;20304;-82
2021/12/08 06:32:44;;;;;;;10.00;5.40;;;;;;;;;;5068820;28;20772;-82
2021/12/08 06:35:21;;;;;;;13.23;6.05;;;3.40;99.90;;;;;;5073302;28;20229;-82
2021/12/08 06:37:50;;;;;;;10.32;7.18;;;3.50;99.90;;;;;;5080250;28;20209;-82
2021/12/08 06:40:21;;;;;;;8.05;5.63;;;3.00;99.90;;;;;;5082830;28;20210;-82
2021/12/08 06:42:53;;;;;;;7.05;6.35;;;3.60;99.90;;;;;;5073028;28;20263;-82
2021/12/08 06:45:24;;;;;;;6.65;5.50;;;3.50;99.90;;;;;;5077887;28;20206;-83
2021/12/08 06:47:53;;;;;;;6.57;5.75;;;3.50;99.90;;;;;;5078281;28;20296;-82
2021/12/08 06:50:25;;;;;;;6.18;5.10;;;3.50;99.90;;;;;;5079043;28;20205;-82
2021/12/08 06:52:54;;;;;;;6.65;5.30;;;3.50;99.90;;;;;;5080645;28;20246;-82
2021/12/08 06:55:27;;;;;;;8.20;6.30;;;3.50;99.90;;;;;;5077019;28;20270;-83
2021/12/08 06:57:57;;;;;;;9.35;5.57;;;3.50;99.90;;;;;;5075683;28;20224;-82
2021/12/08 07:00:37;;;;;;;7.55;5.45;;;3.50;99.90;;;;;;5084589;28;20292;-82
2021/12/08 07:03:20;;;;;;;7.22;4.90;;;;;;;;;;5082247;28;20291;-82
2021/12/08 07:06:06;;;;;;;6.70;5.80;;;;;;;;;;5079914;28;20567;-82
2021/12/08 07:08:48;;;;;;;7.07;5.85;;;3.50;99.90;;;;;;5071453;28;20216;-82
2021/12/08 07:11:34;;;;;;;;;;;;;;;;;;;;;
2021/12/08 07:14:05;;;;;;;7.60;5.18;;;;;;;;;;5083933;28;20197;-82
2021/12/08 07:16:36;;;;;;;7.53;6.05;;;3.50;99.90;;;;;;5080704;28;20283;-82
2021/12/08 07:19:10;;;;;;;8.95;6.15;;;1.80;99.90;;;;;;5081518;28;20232;-82
2021/12/08 07:21:41;;;;;;;8.32;6.22;;;3.40;99.90;;;;;;5082979;28;20548;-82
2021/12/08 07:24:15;;;;;;;11.32;7.10;;;3.50;99.90;;;;;;5081869;28;20208;-82
2021/12/08 07:26:43;;;;;;;7.97;6.72;;;3.40;99.90;;;;;;5084827;28;20199;-82
2021/12/08 07:29:12;;;;;;;7.05;5.70;;;3.40;99.90;;;;;;5074407;28;20232;-82
2021/12/08 07:31:43;;;;;;;10.93;6.10;;;3.40;99.90;;;;;;5081283;28;20221;-82
2021/12/08 07:34:17;;;;;;;9.63;5.00;;;3.40;99.90;;;;;;5079567;28;20349;-82
2021/12/08 07:36:45;;;;;;;10.27;7.40;;;;;;;;;;5078683;28;20250;-83
2021/12/08 07:39:21;;;;;;;7.93;5.30;;;3.40;99.90;;;;;;5085389;28;20212;-83
2021/12/08 07:41:52;;;;;;;7.95;5.45;;;3.40;99.90;;;;;;5085863;28;20268;-83
2021/12/08 07:44:23;;;;;;;8.18;6.65;;;3.40;99.90;;;;;;5085039;28;20218;-82
2021/12/08 07:46:53;;;;;;;7.75;5.88;;;3.40;99.90;;;;;;5079114;28;20218;-83
2021/12/08 07:49:24;;;;;;;8.35;6.55;;;3.50;99.90;;;;;;5083188;28;20250;-83
2021/12/08 07:51:53;;;;;;;7.75;6.95;;;3.50;99.90;;;;;;5083782;28;20224;-83
2021/12/08 07:54:24;;;;;;;22.77;10.05;;;3.40;99.90;;;;;;5083296;28;20740;-83
2021/12/08 07:56:55;;;;;;;13.55;6.90;;;3.40;99.90;;;;;;5083641;28;20551;-83
2021/12/08 07:59:22;;;;;;;15.40;7.47;;;;;;;;;;5081563;28;20659;-83
2021/12/08 08:01:53;;;;;;;27.40;8.23;;;3.50;99.90;;;;;;5082425;28;20288;-83
2021/12/08 08:04:25;;;;;;;19.92;8.82;;;3.50;99.90;;;;;;5083100;28;21899;-83
2021/12/08 08:06:55;;;;;;;13.35;8.55;;;3.50;99.90;;;;;;5082897;28;20233;-83
2021/12/08 08:09:27;;;;;;;11.43;7.60;;;3.50;99.90;;;;;;5085852;28;20199;-83
2021/12/08 08:11:57;;;;;;;13.48;7.13;;;3.50;99.90;;;;;;5081356;28;20229;-83
2021/12/08 08:14:27;;;;;;;23.58;8.48;;;3.50;99.90;;;;;;5081074;28;20203;-83
2021/12/08 08:16:56;;;;;;;10.63;7.00;;;;;;;;;;5084498;28;20303;-83
2021/12/08 08:19:28;;;;;;;14.93;7.30;;;4.30;99.90;;;;;;5082182;28;20214;-83
2021/12/08 08:21:59;;;;;;;14.55;6.15;;;3.60;99.90;;;;;;5082890;28;20227;-83
2021/12/08 08:24:27;;;;;;;8.55;5.38;;;;;;;;;;5082768;28;20952;-83
2021/12/08 08:26:59;;;;;;;7.97;6.55;;;3.70;99.90;;;;;;5080676;28;20622;-83
2021/12/08 08:29:26;;;;;;;8.85;5.00;;;;;;;;;;5082451;28;20254;-83
2021/12/08 08:31:59;;;;;;;7.07;6.38;;;3.70;99.90;;;;;;5078760;28;20222;-83
2021/12/08 08:34:27;;;;;;;13.63;6.60;;;;;;;;;;5080134;28;21047;-83
2021/12/08 08:36:54;;;;;;;8.00;5.50;;;;;;;;;;5083018;28;20207;-83
2021/12/08 08:39:24;;;;;;;8.38;5.63;;;3.70;99.90;;;;;;5082382;28;20209;-83
2021/12/08 08:41:55;;;;;;;6.78;5.50;;;3.70;99.90;;;;;;5085076;28;20297;-83
2021/12/08 08:44:29;;;;;;;7.90;6.03;;;3.70;99.90;;;;;;5084967;28;20255;-83
2021/12/08 08:47:00;;;;;;;7.68;6.88;;;3.70;99.90;;;;;;5080601;28;20292;-83
2021/12/08 08:49:31;;;;;;;8.90;5.60;;;3.50;99.90;;;;;;5083898;28;20291;-83
2021/12/08 08:52:02;;;;;;;11.32;7.35;;;3.60;99.90;;;;;;5079140;28;20594;-83
2021/12/08 08:54:33;;;;;;;8.23;6.70;;;3.70;99.90;;;;;;5082786;28;20747;-83
2021/12/08 08:57:06;;;;;;;13.52;7.47;;;3.70;99.90;;;;;;5078352;28;20207;-83
2021/12/08 08:59:40;;;;;;;9.23;6.43;;;3.80;99.90;;;;;;5082391;28;20202;-83
2021/12/08 09:02:09;;;;;;;9.45;6.38;;;3.80;99.90;;;;;;5082162;28;20225;-83
2021/12/08 09:04:39;;;;;;;7.15;6.45;;;3.80;99.90;;;;;;5078283;28;20676;-83
2021/12/08 09:07:08;;;;;;;6.70;6.00;;;3.80;99.90;;;;;;5082402;28;20236;-83
2021/12/08 09:09:38;;;;;;;8.15;5.90;;;3.80;99.90;;;;;;5079137;28;20210;-83
2021/12/08 09:12:11;;;;;;;9.65;7.20;;;3.80;99.90;;;;;;5078232;28;20312;-84
2021/12/08 09:14:45;;;;;;;8.68;5.82;;;3.80;99.90;;;;;;5079150;28;20282;-83
2021/12/08 09:17:16;;;;;;;8.07;6.43;;;3.80;99.90;;;;;;5079143;28;20270;-83
2021/12/08 09:19:47;;;;;;;6.57;5.38;;;3.90;99.90;;;;;;5078619;28;20550;-83
2021/12/08 09:22:18;;;;;;;8.77;5.80;;;4.10;99.90;;;;;;5078418;28;20265;-83
2021/12/08 09:24:49;;;;;;;7.57;6.18;;;3.90;99.90;;;;;;5084576;28;20606;-84
2021/12/08 09:27:25;;;;;;;5.88;5.30;;;3.90;99.90;;;;;;5078771;28;20213;-83
2021/12/08 09:29:57;;;;;;;6.07;5.55;;;3.90;99.90;;;;;;5083958;28;20334;-84
2021/12/08 09:32:33;;;;;;;6.68;5.18;;;3.70;99.90;;;;;;5082585;28;20330;-84
2021/12/08 09:35:09;;;;;;;6.95;5.72;;;3.90;99.90;;;;;;5083963;28;20209;-84
2021/12/08 09:37:40;;;;;;;6.53;5.82;;;3.90;99.90;;;;;;5084467;28;20204;-84
2021/12/08 09:40:13;;;;;;;8.23;5.20;;;3.90;99.90;;;;;;5072503;28;20262;-83
2021/12/08 09:42:48;;;;;;;6.35;5.53;;;4.00;99.90;;;;;;5078084;28;20296;-84
2021/12/08 09:45:19;;;;;;;8.48;5.10;;;4.00;99.90;;;;;;5082776;28;20213;-84
2021/12/08 09:47:47;;;;;;;6.18;5.65;;;;;;;;;;5077533;28;20224;-84
2021/12/08 09:50:16;;;;;;;9.55;5.72;;;3.70;99.90;;;;;;5078561;28;20790;-84
2021/12/08 09:52:45;;;;;;;6.65;5.97;;;3.90;99.90;;;;;;5079010;28;20622;-85
2021/12/08 09:55:15;;;;;;;6.25;5.55;;;4.00;99.90;;;;;;5080042;28;20209;-84
2021/12/08 09:57:44;;;;;;;6.63;5.32;;;;;;;;;;5077403;28;20747;-84
2021/12/08 10:00:16;;;;;;;7.97;6.07;;;3.80;99.90;;;;;;5081798;28;20203;-84
2021/12/08 10:02:43;;;;;;;8.57;5.35;;;;;;;;;;5077673;28;20202;-84
2021/12/08 10:05:14;;;;;;;8.60;5.45;;;4.10;99.90;;;;;;5077829;28;20209;-85
2021/12/08 10:07:43;;;;;;;6.72;5.20;;;4.00;99.90;;;;;;5080785;28;20735;-85
2021/12/08 10:10:12;;;;;;;6.65;5.53;;;4.10;99.90;;;;;;5083302;28;20203;-84
2021/12/08 10:12:40;;;;;;;14.30;5.60;;;;;;;;;;5081150;28;20223;-84
2021/12/08 10:15:12;;;;;;;6.07;5.47;;;4.10;99.90;;;;;;5081468;28;20207;-84
2021/12/08 10:17:39;;;;;;;6.78;5.45;;;;;;;;;;5079089;28;20652;-85
2021/12/08 10:20:14;;;;;;;7.03;5.50;;;4.10;99.90;;;;;;5081928;28;20253;-84
2021/12/08 10:22:43;;;;;;;5.05;4.47;;;4.10;99.90;;;;;;5079772;28;20205;-84
2021/12/08 10:25:14;;;;;;;6.70;5.20;;;4.10;99.90;;;;;;5081011;28;20599;-84
2021/12/08 10:28:05;;;;;;;5.55;5.05;;;4.10;99.90;;;;;;5079870;28;20283;-84
2021/12/08 10:30:37;;;;;;;5.93;5.43;;;4.10;99.90;;;;;;5080455;28;20288;-84
2021/12/08 10:33:11;;;;;;;8.23;5.30;;;;;;;;;;5082846;28;20711;-84
2021/12/08 10:35:46;;;;;;;7.07;6.20;;;4.20;99.90;;;;;;5086309;28;20617;-85
2021/12/08 10:38:15;;;;;;;20.15;7.43;;;;;;;;;;5080277;28;20202;-85
2021/12/08 10:40:58;;;;;;;12.73;6.13;;;4.30;99.90;;;;;;5079155;28;20235;-84
2021/12/08 10:43:25;;;;;;;9.85;6.10;;;;;;;;;;5081258;28;20207;-84
2021/12/08 10:46:02;;;;;;;6.35;5.57;;;;;;;;;;5080852;28;20202;-84
2021/12/08 10:48:35;;;;;;;5.90;4.78;;;;;;;;;;5074999;28;20992;-84
2021/12/08 10:56:37;;;;;;;15.57;6.47;;;4.30;99.90;;;;;;5083835;28;20209;-84
2021/12/08 10:59:05;;;;;;;9.52;6.22;;;;;;;;;;5083214;28;20252;-84
2021/12/08 11:01:33;;;;;;;6.20;5.20;;;;;;;;;;5076594;28;20268;-84
2021/12/08 11:04:03;;;;;;;5.70;4.40;;;4.40;99.90;;;;;;5079972;28;20252;-84
2021/12/08 11:06:31;;;;;;;7.53;6.30;;;;;;;;;;5079885;28;20261;-84
2021/12/08 11:08:58;;;;;;;4.82;4.43;;;;;;;;;;5081341;28;20283;-84
2021/12/08 11:11:31;;;;;;;6.88;5.22;;;4.50;99.90;;;;;;5082340;28;20195;-84
2021/12/08 11:13:59;;;;;;;5.75;5.00;;;4.50;99.90;;;;;;5080668;28;20610;-85
2021/12/08 11:16:29;;;;;;;5.70;4.68;;;4.50;99.90;;;;;;5082022;28;20428;-84
2021/12/08 11:19:02;;;;;;;5.95;4.43;;;4.60;99.90;;;;;;5079011;28;20812;-85
2021/12/08 11:21:35;;;;;;;6.20;4.90;;;4.50;99.90;;;;;;5075370;28;20206;-85
2021/12/08 11:24:03;;;;;;;4.53;4.10;;;;;;;;;;5079793;28;20227;-84
2021/12/08 11:26:33;;;;;;;4.75;4.35;;;4.50;99.90;;;;;;5080163;28;20328;-84
2021/12/08 11:29:03;;;;;;;5.50;4.93;;;4.50;99.90;;;;;;5079695;28;20195;-84
2021/12/08 11:31:34;;;;;;;4.78;4.28;;;4.50;99.90;;;;;;5079290;28;20264;-84
2021/12/08 11:34:05;;;;;;;4.25;3.80;;;4.60;99.90;;;;;;5069867;28;20269;-84
2021/12/08 11:36:35;;;;;;;6.65;4.57;;;4.50;99.90;;;;;;5081783;28;20205;-84
2021/12/08 11:39:07;;;;;;;5.60;3.92;;;;;;;;;;5073096;28;20208;-84
2021/12/08 11:41:36;;;;;;;5.97;4.30;;;4.60;99.90;;;;;;5078772;28;20210;-85
2021/12/08 11:44:08;;;;;;;4.22;3.72;;;4.60;99.90;;;;;;5083008;28;20207;-84
2021/12/08 11:46:40;;;;;;;4.55;3.63;;;4.60;99.90;;;;;;5080584;28;20206;-84
2021/12/08 11:49:10;;;;;;;3.70;3.33;;;;;;;;;;5072749;28;20571;-84
2021/12/08 11:51:54;;;;;;;4.22;3.83;;;4.60;99.90;;;;;;5081083;28;20207;-84
2021/12/08 11:54:39;;;;;;;4.40;4.00;;;;;;;;;;5079092;28;20233;-84
2021/12/08 11:57:10;;;;;;;4.18;3.78;;;4.60;99.90;;;;;;5080302;28;20241;-85
2021/12/08 11:59:59;;;;;;;4.38;3.80;;;4.70;99.90;;;;;;5078153;28;20213;-85
2021/12/08 12:02:29;;;;;;;5.25;4.28;;;4.70;99.90;;;;;;5071622;28;20293;-85
2021/12/08 12:04:58;;;;;;;4.57;4.18;;;;;;;;;;5082106;28;20199;-85
2021/12/08 12:07:25;;;;;;;4.90;4.40;;;;;;;;;;5079579;28;20241;-85
2021/12/08 12:09:53;;;;;;;4.32;3.58;;;;;;;;;;5080510;28;20261;-84
2021/12/08 12:12:20;;;;;;;4.60;3.83;;;;;;;;;;5077466;28;20206;-85
2021/12/08 12:14:48;;;;;;;4.88;4.38;;;;;;;;;;5082711;28;20211;-84
2021/12/08 12:17:16;;;;;;;6.10;5.13;;;;;;;;;;5076002;28;20260;-85
2021/12/08 12:19:49;;;;;;;4.20;3.90;;;4.50;99.90;;;;;;5080733;28;20273;-85
2021/12/08 12:22:36;;;;;;;6.18;5.43;;;4.60;99.90;;;;;;5087100;28;20208;-84
2021/12/08 12:25:20;;;;;;;5.35;4.85;;;4.70;99.90;;;;;;5076856;28;20585;-85
2021/12/08 12:28:00;;;;;;;4.63;4.22;;;4.60;99.90;;;;;;5081676;28;20245;-84
2021/12/08 12:30:33;;;;;;;7.72;4.85;;;4.50;99.90;;;;;;5078747;28;20288;-85
2021/12/08 12:33:00;;;;;;;5.13;4.13;;;;;;;;;;5082738;28;20741;-85
2021/12/08 12:35:31;;;;;;;5.72;4.95;;;4.50;99.90;;;;;;5084715;28;20289;-85
2021/12/08 12:38:04;;;;;;;7.22;5.28;;;4.70;99.90;;;;;;5086336;28;20211;-85
2021/12/08 12:40:35;;;;;;;6.85;5.15;;;4.70;99.90;;;;;;5090541;28;20652;-85
2021/12/08 12:43:03;;;;;;;8.63;7.63;;;;;;;;;;5080706;28;20208;-85
2021/12/08 12:45:36;;;;;;;10.10;9.05;;;6.50;99.90;;;;;;5072235;28;20231;-85
2021/12/08 12:48:13;;;;;;;7.65;6.57;;;4.60;99.90;;;;;;5081267;28;20218;-85
2021/12/08 12:50:59;;;;;;;8.13;6.53;;;4.60;99.90;;;;;;5085066;28;20209;-85
2021/12/08 12:53:40;;;;;;;7.70;6.65;;;4.50;99.90;;;;;;5082522;28;20742;-85
2021/12/08 12:56:08;;;;;;;7.13;6.18;;;;;;;;;;5079274;28;20264;-85
2021/12/08 12:58:49;;;;;;;8.10;6.95;;;4.50;99.90;;;;;;5078822;28;20212;-85
2021/12/08 13:01:19;;;;;;;8.80;6.43;;;4.50;99.90;;;;;;5078316;28;20205;-85
2021/12/08 13:03:53;;;;;;;11.32;6.85;;;4.50;99.90;;;;;;5079953;28;20676;-85
2021/12/08 13:06:41;;;;;;;9.38;7.15;;;4.50;99.90;;;;;;5080838;28;20214;-85
2021/12/08 13:09:32;;;;;;;9.85;6.65;;;4.50;99.90;;;;;;5082954;28;20206;-85
2021/12/08 13:12:08;;;;;;;6.90;6.20;;;4.50;99.90;;;;;;5084806;28;20222;-85
2021/12/08 13:14:35;;;;;;;7.28;6.55;;;;;;;;;;5069633;28;20227;-85
2021/12/08 13:17:28;;;;;;;7.18;6.03;;;4.50;99.90;;;;;;5079717;28;20206;-85
2021/12/08 13:19:58;;;;;;;7.90;6.32;;;4.50;99.90;;;;;;5077330;28;20202;-84
2021/12/08 13:22:54;;;;;;;8.52;6.15;;;4.50;99.90;;;;;;5078494;28;20199;-85
2021/12/08 13:25:55;;;;;;;7.80;7.00;;;4.50;99.90;;;;;;5079548;28;20207;-85
2021/12/08 13:28:39;;;;;;;9.25;6.90;;;4.50;99.90;;;;;;5076588;28;20282;-85
2021/12/08 13:31:11;;;;;;;6.95;6.00;;;4.40;99.90;;;;;;5081952;28;20214;-85
2021/12/08 13:33:41;;;;;;;8.95;6.30;;;4.40;99.90;;;;;;5075167;28;20404;-85
2021/12/08 13:36:33;;;;;;;7.07;5.95;;;4.40;99.90;;;;;;5081648;28;20207;-85
2021/12/08 13:39:22;;;;;;;7.03;6.30;;;4.60;99.90;;;;;;5063955;28;20296;-85
2021/12/08 13:42:03;;;;;;;8.68;6.80;;;4.50;99.90;;;;;;5080726;28;20308;-85
2021/12/08 13:44:35;;;;;;;9.15;6.35;;;4.60;99.90;;;;;;5082887;28;20663;-86
2021/12/08 13:47:05;;;;;;;7.50;6.63;;;4.70;99.90;;;;;;5069883;28;20246;-85
2021/12/08 13:49:36;;;;;;;7.68;6.63;;;4.70;99.90;;;;;;5079723;28;20211;-85
2021/12/08 13:52:20;;;;;;;6.10;5.13;;;4.70;99.90;;;;;;5082361;28;20216;-85
2021/12/08 13:54:49;;;;;;;6.80;6.10;;;4.70;99.90;;;;;;5078124;28;20649;-85
2021/12/08 13:57:46;;;;;;;7.68;5.40;;;4.70;99.90;;;;;;5083221;28;20291;-84
2021/12/08 14:00:30;;;;;;;9.32;6.07;;;4.70;99.90;;;;;;5035799;28;20245;-85
2021/12/08 14:03:05;;;;;;;7.03;6.15;;;4.70;99.90;;;;;;5076472;28;20268;-85
2021/12/08 14:05:34;;;;;;;8.60;5.78;;;4.70;99.90;;;;;;5084225;28;20541;-85
2021/12/08 14:08:03;;;;;;;9.43;6.03;;;4.70;99.90;;;;;;5081762;28;20207;-85
2021/12/08 14:10:34;;;;;;;8.00;5.85;;;4.70;99.90;;;;;;5086419;28;20227;-86
2021/12/08 14:13:08;;;;;;;6.15;5.32;;;4.70;99.90;;;;;;5078192;28;20218;-86
2021/12/08 14:15:43;;;;;;;6.00;5.40;;;4.70;99.90;;;;;;5080443;28;20203;-86
2021/12/08 14:18:16;;;;;;;6.85;5.60;;;4.70;99.90;;;;;;5079345;28;20214;-85